sensor_id;sensor_type;location;lat;lon;timestamp;pressure;altitude;pressure_sealevel;temperature;humidity
71559;BME280;59382;43.852;25.952;2022-12-18T00:01:53;102086.59;;;8.29;70.71
71559;BME280;59382;43.852;25.952;2022-12-18T00:04:22;102093.84;;;8.29;70.51
71559;BME280;59382;43.852;25.952;2022-12-18T00:06:48;102094.78;;;8.20;70.46
71559;BME280;59382;43.852;25.952;2022-12-18T00:09:14;102092.59;;;8.15;70.11
71559;BME280;59382;43.852;25.952;2022-12-18T00:11:39;102094.22;;;8.08;70.32
71559;BME280;59382;43.852;25.952;2022-12-18T00:14:05;102093.56;;;8.06;70.27
71559;BME280;59382;43.852;25.952;2022-12-18T00:16:33;102098.56;;;8.01;70.18
71559;BME280;59382;43.852;25.952;2022-12-18T00:19:03;102105.13;;;7.98;70.18
71559;BME280;59382;43.852;25.952;2022-12-18T00:21:33;102095.81;;;7.85;70.65
71559;BME280;59382;43.852;25.952;2022-12-18T00:23:59;102120.38;;;7.90;70.22
71559;BME280;59382;43.852;25.952;2022-12-18T00:26:28;102125.75;;;7.90;70.20
71559;BME280;59382;43.852;25.952;2022-12-18T00:28:54;102124.03;;;7.89;70.37
71559;BME280;59382;43.852;25.952;2022-12-18T00:31:24;102112.19;;;7.74;69.87
71559;BME280;59382;43.852;25.952;2022-12-18T00:33:50;102108.16;;;7.70;70.13
71559;BME280;59382;43.852;25.952;2022-12-18T00:36:20;102140.28;;;7.79;70.18
71559;BME280;59382;43.852;25.952;2022-12-18T00:38:46;102135.25;;;7.76;70.10
71559;BME280;59382;43.852;25.952;2022-12-18T00:41:14;102130.28;;;7.64;69.97
71559;BME280;59382;43.852;25.952;2022-12-18T00:44:00;102147.97;;;7.74;70.01
71559;BME280;59382;43.852;25.952;2022-12-18T00:49:53;102148.59;;;7.68;69.41
71559;BME280;59382;43.852;25.952;2022-12-18T00:52:20;102115.72;;;7.49;69.51
71559;BME280;59382;43.852;25.952;2022-12-18T00:55:31;102156.13;;;7.65;69.60
71559;BME280;59382;43.852;25.952;2022-12-18T00:57:57;102146.16;;;7.57;69.59
71559;BME280;59382;43.852;25.952;2022-12-18T01:00:31;102147.34;;;7.55;69.27
71559;BME280;59382;43.852;25.952;2022-12-18T01:03:06;102168.19;;;7.61;69.56
71559;BME280;59382;43.852;25.952;2022-12-18T01:05:33;102168.91;;;7.63;69.40
71559;BME280;59382;43.852;25.952;2022-12-18T01:08:16;102165.03;;;7.65;69.34
71559;BME280;59382;43.852;25.952;2022-12-18T01:10:42;102148.28;;;7.46;69.35
71559;BME280;59382;43.852;25.952;2022-12-18T01:13:07;102177.13;;;7.61;69.42
71559;BME280;59382;43.852;25.952;2022-12-18T01:15:33;102178.31;;;7.67;69.38
71559;BME280;59382;43.852;25.952;2022-12-18T01:17:58;102156.44;;;7.62;69.13
71559;BME280;59382;43.852;25.952;2022-12-18T01:20:24;102155.78;;;7.60;69.19
71559;BME280;59382;43.852;25.952;2022-12-18T01:22:49;102169.56;;;7.65;69.27
71559;BME280;59382;43.852;25.952;2022-12-18T01:25:15;102174.63;;;7.68;69.02
71559;BME280;59382;43.852;25.952;2022-12-18T01:27:40;102171.59;;;7.63;69.05
71559;BME280;59382;43.852;25.952;2022-12-18T01:30:06;102158.94;;;7.55;68.84
71559;BME280;59382;43.852;25.952;2022-12-18T01:32:32;102179.78;;;7.61;69.26
71559;BME280;59382;43.852;25.952;2022-12-18T01:34:58;102185.84;;;7.63;68.99
71559;BME280;59382;43.852;25.952;2022-12-18T01:37:23;102180.63;;;7.62;68.93
71559;BME280;59382;43.852;25.952;2022-12-18T01:39:49;102151.66;;;7.48;69.07
71559;BME280;59382;43.852;25.952;2022-12-18T01:42:15;102158.69;;;7.49;68.80
71559;BME280;59382;43.852;25.952;2022-12-18T01:47:46;102178.25;;;7.59;68.72
71559;BME280;59382;43.852;25.952;2022-12-18T01:50:36;102172.53;;;7.54;68.50
71559;BME280;59382;43.852;25.952;2022-12-18T01:53:16;102177.91;;;7.54;68.56
71559;BME280;59382;43.852;25.952;2022-12-18T01:55:45;102181.88;;;7.50;68.13
71559;BME280;59382;43.852;25.952;2022-12-18T01:58:11;102179.50;;;7.47;68.45
71559;BME280;59382;43.852;25.952;2022-12-18T02:00:37;102177.16;;;7.44;68.41
71559;BME280;59382;43.852;25.952;2022-12-18T02:03:03;102182.19;;;7.47;68.62
71559;BME280;59382;43.852;25.952;2022-12-18T02:05:47;102188.41;;;7.47;68.10
71559;BME280;59382;43.852;25.952;2022-12-18T02:08:27;102184.34;;;7.43;67.95
71559;BME280;59382;43.852;25.952;2022-12-18T02:11:10;102187.19;;;7.42;67.44
71559;BME280;59382;43.852;25.952;2022-12-18T02:16:37;102204.00;;;7.44;67.90
71559;BME280;59382;43.852;25.952;2022-12-18T02:27:35;102206.59;;;7.36;67.84
71559;BME280;59382;43.852;25.952;2022-12-18T02:30:04;102204.38;;;7.31;67.93
71559;BME280;59382;43.852;25.952;2022-12-18T02:32:37;102202.31;;;7.25;67.78
71559;BME280;59382;43.852;25.952;2022-12-18T02:35:06;102225.56;;;7.34;67.69
71559;BME280;59382;43.852;25.952;2022-12-18T02:37:34;102225.72;;;7.33;67.97
71559;BME280;59382;43.852;25.952;2022-12-18T02:40:02;102234.63;;;7.33;67.87
71559;BME280;59382;43.852;25.952;2022-12-18T02:42:29;102239.91;;;7.25;67.89
71559;BME280;59382;43.852;25.952;2022-12-18T02:44:54;102237.28;;;7.16;67.89
71559;BME280;59382;43.852;25.952;2022-12-18T02:47:23;102245.72;;;7.21;67.87
71559;BME280;59382;43.852;25.952;2022-12-18T02:58:47;102281.13;;;7.07;67.74
71559;BME280;59382;43.852;25.952;2022-12-18T03:01:24;102290.91;;;7.08;67.94
71559;BME280;59382;43.852;25.952;2022-12-18T03:04:00;102302.31;;;7.10;68.16
71559;BME280;59382;43.852;25.952;2022-12-18T03:06:37;102302.16;;;7.11;67.80
71559;BME280;59382;43.852;25.952;2022-12-18T03:09:21;102292.09;;;6.96;67.47
71559;BME280;59382;43.852;25.952;2022-12-18T03:11:56;102298.63;;;6.93;67.70
71559;BME280;59382;43.852;25.952;2022-12-18T03:14:43;102314.88;;;6.92;68.12
71559;BME280;59382;43.852;25.952;2022-12-18T03:17:13;102313.47;;;6.88;68.29
71559;BME280;59382;43.852;25.952;2022-12-18T03:19:42;102316.56;;;6.93;67.93
71559;BME280;59382;43.852;25.952;2022-12-18T03:22:08;102317.69;;;6.90;67.97
71559;BME280;59382;43.852;25.952;2022-12-18T03:24:35;102310.63;;;6.89;68.04
71559;BME280;59382;43.852;25.952;2022-12-18T03:27:07;102307.72;;;6.83;68.04
71559;BME280;59382;43.852;25.952;2022-12-18T03:29:38;102310.69;;;6.80;67.78
71559;BME280;59382;43.852;25.952;2022-12-18T03:32:11;102334.91;;;6.88;68.28
71559;BME280;59382;43.852;25.952;2022-12-18T03:34:42;102336.63;;;6.89;68.39
71559;BME280;59382;43.852;25.952;2022-12-18T03:37:09;102342.28;;;6.86;68.24
71559;BME280;59382;43.852;25.952;2022-12-18T03:39:35;102336.41;;;6.73;68.14
71559;BME280;59382;43.852;25.952;2022-12-18T03:42:05;102353.63;;;6.80;67.85
71559;BME280;59382;43.852;25.952;2022-12-18T03:44:43;102351.91;;;6.79;67.75
71559;BME280;59382;43.852;25.952;2022-12-18T03:47:37;102363.94;;;6.75;68.09
71559;BME280;59382;43.852;25.952;2022-12-18T03:55:09;102358.63;;;6.56;67.75
71559;BME280;59382;43.852;25.952;2022-12-18T03:57:35;102356.53;;;6.50;67.86
71559;BME280;59382;43.852;25.952;2022-12-18T04:00:13;102385.03;;;6.60;67.98
71559;BME280;59382;43.852;25.952;2022-12-18T04:02:43;102362.19;;;6.47;67.33
71559;BME280;59382;43.852;25.952;2022-12-18T04:05:10;102361.34;;;6.46;67.72
71559;BME280;59382;43.852;25.952;2022-12-18T04:07:38;102383.47;;;6.58;68.05
71559;BME280;59382;43.852;25.952;2022-12-18T04:10:06;102375.69;;;6.55;67.66
71559;BME280;59382;43.852;25.952;2022-12-18T04:12:32;102369.00;;;6.41;67.86
71559;BME280;59382;43.852;25.952;2022-12-18T04:14:58;102375.16;;;6.51;67.65
71559;BME280;59382;43.852;25.952;2022-12-18T04:17:23;102386.75;;;6.52;67.80
71559;BME280;59382;43.852;25.952;2022-12-18T04:19:49;102379.13;;;6.47;67.52
71559;BME280;59382;43.852;25.952;2022-12-18T04:22:15;102392.13;;;6.52;67.76
71559;BME280;59382;43.852;25.952;2022-12-18T04:24:40;102390.69;;;6.48;67.38
71559;BME280;59382;43.852;25.952;2022-12-18T04:27:06;102384.22;;;6.41;67.57
71559;BME280;59382;43.852;25.952;2022-12-18T04:29:31;102389.88;;;6.38;67.96
71559;BME280;59382;43.852;25.952;2022-12-18T04:31:57;102396.22;;;6.37;67.93
71559;BME280;59382;43.852;25.952;2022-12-18T04:34:23;102385.66;;;6.26;67.96
71559;BME280;59382;43.852;25.952;2022-12-18T04:36:48;102395.09;;;6.30;67.80
71559;BME280;59382;43.852;25.952;2022-12-18T04:39:14;102408.50;;;6.39;67.86
71559;BME280;59382;43.852;25.952;2022-12-18T04:41:40;102417.25;;;6.41;68.20
71559;BME280;59382;43.852;25.952;2022-12-18T04:44:06;102421.47;;;6.34;67.75
71559;BME280;59382;43.852;25.952;2022-12-18T04:46:31;102400.34;;;6.22;68.25
71559;BME280;59382;43.852;25.952;2022-12-18T04:48:57;102420.94;;;6.31;68.04
71559;BME280;59382;43.852;25.952;2022-12-18T04:51:23;102436.03;;;6.32;67.78
71559;BME280;59382;43.852;25.952;2022-12-18T04:53:50;102435.59;;;6.27;67.83
71559;BME280;59382;43.852;25.952;2022-12-18T04:56:16;102446.03;;;6.30;67.37
71559;BME280;59382;43.852;25.952;2022-12-18T04:58:43;102435.03;;;6.23;67.95
71559;BME280;59382;43.852;25.952;2022-12-18T05:01:11;102439.25;;;6.26;67.81
71559;BME280;59382;43.852;25.952;2022-12-18T05:03:37;102464.38;;;6.34;67.63
71559;BME280;59382;43.852;25.952;2022-12-18T05:06:04;102463.53;;;6.24;68.00
71559;BME280;59382;43.852;25.952;2022-12-18T05:08:30;102491.19;;;6.34;67.75
71559;BME280;59382;43.852;25.952;2022-12-18T05:11:00;102491.19;;;6.34;67.84
71559;BME280;59382;43.852;25.952;2022-12-18T05:13:26;102486.97;;;6.32;67.59
71559;BME280;59382;43.852;25.952;2022-12-18T05:15:53;102476.78;;;6.26;67.72
71559;BME280;59382;43.852;25.952;2022-12-18T05:18:18;102500.81;;;6.37;67.44
71559;BME280;59382;43.852;25.952;2022-12-18T05:20:44;102501.63;;;6.37;67.79
71559;BME280;59382;43.852;25.952;2022-12-18T05:23:09;102502.75;;;6.35;67.67
71559;BME280;59382;43.852;25.952;2022-12-18T05:25:35;102506.56;;;6.42;67.77
71559;BME280;59382;43.852;25.952;2022-12-18T05:28:00;102485.00;;;6.34;67.65
71559;BME280;59382;43.852;25.952;2022-12-18T05:30:26;102516.31;;;6.43;67.28
71559;BME280;59382;43.852;25.952;2022-12-18T05:32:54;102518.84;;;6.35;67.13
71559;BME280;59382;43.852;25.952;2022-12-18T05:35:20;102479.59;;;6.15;67.39
71559;BME280;59382;43.852;25.952;2022-12-18T05:37:45;102500.75;;;6.18;67.22
71559;BME280;59382;43.852;25.952;2022-12-18T05:40:11;102514.03;;;6.29;67.58
71559;BME280;59382;43.852;25.952;2022-12-18T05:42:37;102518.97;;;6.24;67.45
71559;BME280;59382;43.852;25.952;2022-12-18T05:45:03;102542.53;;;6.30;67.60
71559;BME280;59382;43.852;25.952;2022-12-18T05:47:29;102538.03;;;6.30;67.23
71559;BME280;59382;43.852;25.952;2022-12-18T05:49:54;102536.22;;;6.31;67.73
71559;BME280;59382;43.852;25.952;2022-12-18T05:52:20;102545.66;;;6.35;67.41
71559;BME280;59382;43.852;25.952;2022-12-18T05:54:45;102550.75;;;6.38;67.52
71559;BME280;59382;43.852;25.952;2022-12-18T05:57:11;102529.41;;;6.27;67.29
71559;BME280;59382;43.852;25.952;2022-12-18T05:59:36;102551.03;;;6.35;67.44
71559;BME280;59382;43.852;25.952;2022-12-18T06:02:02;102525.75;;;6.18;67.20
71559;BME280;59382;43.852;25.952;2022-12-18T06:04:28;102517.00;;;6.07;66.88
71559;BME280;59382;43.852;25.952;2022-12-18T06:06:54;102552.69;;;6.17;67.08
71559;BME280;59382;43.852;25.952;2022-12-18T06:09:19;102541.38;;;6.03;67.10
71559;BME280;59382;43.852;25.952;2022-12-18T06:11:47;102571.16;;;6.20;67.40
71559;BME280;59382;43.852;25.952;2022-12-18T06:14:12;102570.72;;;6.15;67.39
71559;BME280;59382;43.852;25.952;2022-12-18T06:16:38;102560.00;;;6.15;67.12
71559;BME280;59382;43.852;25.952;2022-12-18T06:19:05;102565.94;;;6.18;66.80
71559;BME280;59382;43.852;25.952;2022-12-18T06:21:32;102551.81;;;6.07;67.05
71559;BME280;59382;43.852;25.952;2022-12-18T06:23:57;102587.97;;;6.22;67.24
71559;BME280;59382;43.852;25.952;2022-12-18T06:26:23;102586.53;;;6.18;67.09
71559;BME280;59382;43.852;25.952;2022-12-18T06:28:49;102592.16;;;6.15;67.33
71559;BME280;59382;43.852;25.952;2022-12-18T06:31:14;102616.75;;;6.20;66.89
71559;BME280;59382;43.852;25.952;2022-12-18T06:33:40;102619.16;;;6.23;67.15
71559;BME280;59382;43.852;25.952;2022-12-18T06:38:33;102603.63;;;6.17;67.33
71559;BME280;59382;43.852;25.952;2022-12-18T06:40:59;102611.09;;;6.23;67.41
71559;BME280;59382;43.852;25.952;2022-12-18T06:43:24;102605.31;;;6.18;67.31
71559;BME280;59382;43.852;25.952;2022-12-18T06:45:50;102626.22;;;6.33;67.10
71559;BME280;59382;43.852;25.952;2022-12-18T06:48:20;102627.78;;;6.36;66.71
71559;BME280;59382;43.852;25.952;2022-12-18T06:51:03;102627.78;;;6.26;66.60
71559;BME280;59382;43.852;25.952;2022-12-18T06:53:31;102620.56;;;6.27;66.90
71559;BME280;59382;43.852;25.952;2022-12-18T06:56:20;102644.59;;;6.38;66.79
71559;BME280;59382;43.852;25.952;2022-12-18T06:58:47;102646.41;;;6.37;67.00
71559;BME280;59382;43.852;25.952;2022-12-18T07:01:16;102650.69;;;6.40;66.39
71559;BME280;59382;43.852;25.952;2022-12-18T07:03:43;102654.31;;;6.39;66.82
71559;BME280;59382;43.852;25.952;2022-12-18T07:06:16;102666.50;;;6.43;66.39
71559;BME280;59382;43.852;25.952;2022-12-18T07:08:42;102674.13;;;6.47;66.42
71559;BME280;59382;43.852;25.952;2022-12-18T07:11:08;102677.50;;;6.49;66.53
71559;BME280;59382;43.852;25.952;2022-12-18T07:13:34;102682.31;;;6.55;66.50
71559;BME280;59382;43.852;25.952;2022-12-18T07:16:07;102670.72;;;6.55;66.14
71559;BME280;59382;43.852;25.952;2022-12-18T07:18:33;102686.59;;;6.77;66.11
71559;BME280;59382;43.852;25.952;2022-12-18T07:21:03;102694.50;;;6.78;66.11
71559;BME280;59382;43.852;25.952;2022-12-18T07:23:28;102703.53;;;6.77;66.26
71559;BME280;59382;43.852;25.952;2022-12-18T07:25:53;102696.34;;;6.78;66.16
71559;BME280;59382;43.852;25.952;2022-12-18T07:28:19;102689.97;;;6.69;66.10
71559;BME280;59382;43.852;25.952;2022-12-18T07:30:44;102705.78;;;6.82;65.97
71559;BME280;59382;43.852;25.952;2022-12-18T07:33:10;102707.50;;;6.83;65.78
71559;BME280;59382;43.852;25.952;2022-12-18T07:35:35;102709.78;;;6.87;65.86
71559;BME280;59382;43.852;25.952;2022-12-18T07:38:01;102682.06;;;6.68;65.74
71559;BME280;59382;43.852;25.952;2022-12-18T07:40:26;102722.47;;;6.85;65.46
71559;BME280;59382;43.852;25.952;2022-12-18T07:42:52;102706.63;;;6.73;65.58
71559;BME280;59382;43.852;25.952;2022-12-18T07:45:17;102723.16;;;6.78;65.58
71559;BME280;59382;43.852;25.952;2022-12-18T07:47:43;102719.91;;;6.74;65.51
71559;BME280;59382;43.852;25.952;2022-12-18T07:50:10;102710.88;;;6.75;65.69
71559;BME280;59382;43.852;25.952;2022-12-18T07:52:35;102732.06;;;6.88;65.57
71559;BME280;59382;43.852;25.952;2022-12-18T07:55:01;102727.88;;;6.95;65.47
71559;BME280;59382;43.852;25.952;2022-12-18T07:57:26;102722.22;;;6.98;65.41
71559;BME280;59382;43.852;25.952;2022-12-18T07:59:52;102727.13;;;7.02;65.34
71559;BME280;59382;43.852;25.952;2022-12-18T08:02:17;102738.03;;;7.10;65.03
71559;BME280;59382;43.852;25.952;2022-12-18T08:04:44;102738.63;;;7.14;65.02
71559;BME280;59382;43.852;25.952;2022-12-18T08:07:09;102723.47;;;7.13;65.24
71559;BME280;59382;43.852;25.952;2022-12-18T08:09:35;102741.16;;;7.25;65.17
71559;BME280;59382;43.852;25.952;2022-12-18T08:12:00;102742.00;;;7.25;64.73
71559;BME280;59382;43.852;25.952;2022-12-18T08:14:26;102724.78;;;7.18;64.76
71559;BME280;59382;43.852;25.952;2022-12-18T08:16:51;102721.09;;;7.19;64.77
71559;BME280;59382;43.852;25.952;2022-12-18T08:19:17;102746.25;;;7.28;64.68
71559;BME280;59382;43.852;25.952;2022-12-18T08:21:42;102749.06;;;7.26;64.88
71559;BME280;59382;43.852;25.952;2022-12-18T08:24:09;102730.28;;;7.17;64.38
71559;BME280;59382;43.852;25.952;2022-12-18T08:26:34;102740.31;;;7.15;64.34
71559;BME280;59382;43.852;25.952;2022-12-18T08:29:00;102751.06;;;7.24;64.59
71559;BME280;59382;43.852;25.952;2022-12-18T08:31:27;102756.97;;;7.28;64.54
71559;BME280;59382;43.852;25.952;2022-12-18T08:33:54;102761.25;;;7.30;64.41
71559;BME280;59382;43.852;25.952;2022-12-18T08:36:20;102747.09;;;7.28;64.65
71559;BME280;59382;43.852;25.952;2022-12-18T08:38:46;102768.31;;;7.41;63.99
71559;BME280;59382;43.852;25.952;2022-12-18T08:41:14;102762.66;;;7.44;64.17
71559;BME280;59382;43.852;25.952;2022-12-18T08:43:40;102749.66;;;7.39;63.90
71559;BME280;59382;43.852;25.952;2022-12-18T08:46:26;102769.28;;;7.40;63.91
71559;BME280;59382;43.852;25.952;2022-12-18T08:48:53;102765.63;;;7.41;64.16
71559;BME280;59382;43.852;25.952;2022-12-18T08:51:20;102755.00;;;7.30;63.77
71559;BME280;59382;43.852;25.952;2022-12-18T08:53:46;102767.59;;;7.29;63.61
71559;BME280;59382;43.852;25.952;2022-12-18T08:56:15;102717.00;;;7.06;63.69
71559;BME280;59382;43.852;25.952;2022-12-18T08:58:42;102772.53;;;7.34;63.32
71559;BME280;59382;43.852;25.952;2022-12-18T09:01:12;102756.69;;;7.31;63.47
71559;BME280;59382;43.852;25.952;2022-12-18T09:03:39;102748.78;;;7.29;63.52
71559;BME280;59382;43.852;25.952;2022-12-18T09:06:05;102737.06;;;7.21;63.35
71559;BME280;59382;43.852;25.952;2022-12-18T09:08:31;102758.41;;;7.32;63.55
71559;BME280;59382;43.852;25.952;2022-12-18T09:10:56;102739.03;;;7.19;63.50
71559;BME280;59382;43.852;25.952;2022-12-18T09:13:22;102773.41;;;7.34;62.98
71559;BME280;59382;43.852;25.952;2022-12-18T09:15:51;102771.56;;;7.35;63.30
71559;BME280;59382;43.852;25.952;2022-12-18T09:18:18;102773.41;;;7.34;63.28
71559;BME280;59382;43.852;25.952;2022-12-18T09:20:45;102781.03;;;7.39;63.22
71559;BME280;59382;43.852;25.952;2022-12-18T09:23:11;102788.25;;;7.48;63.26
71559;BME280;59382;43.852;25.952;2022-12-18T09:25:37;102768.03;;;7.44;63.20
71559;BME280;59382;43.852;25.952;2022-12-18T09:28:13;102775.78;;;7.56;63.14
71559;BME280;59382;43.852;25.952;2022-12-18T09:30:42;102775.38;;;7.61;62.87
71559;BME280;59382;43.852;25.952;2022-12-18T09:33:08;102749.91;;;7.46;62.93
71559;BME280;59382;43.852;25.952;2022-12-18T09:35:38;102755.88;;;7.49;62.93
71559;BME280;59382;43.852;25.952;2022-12-18T09:38:04;102775.66;;;7.58;62.66
71559;BME280;59382;43.852;25.952;2022-12-18T09:40:34;102783.72;;;7.58;62.74
71559;BME280;59382;43.852;25.952;2022-12-18T09:43:04;102736.38;;;7.38;62.61
71559;BME280;59382;43.852;25.952;2022-12-18T09:45:38;102755.72;;;7.51;62.48
71559;BME280;59382;43.852;25.952;2022-12-18T09:48:10;102747.94;;;7.48;62.68
71559;BME280;59382;43.852;25.952;2022-12-18T09:50:42;102764.19;;;7.65;62.84
71559;BME280;59382;43.852;25.952;2022-12-18T09:53:18;102765.72;;;7.68;62.51
71559;BME280;59382;43.852;25.952;2022-12-18T09:55:46;102745.53;;;7.64;62.42
71559;BME280;59382;43.852;25.952;2022-12-18T09:58:34;102753.59;;;7.64;61.90
71559;BME280;59382;43.852;25.952;2022-12-18T10:01:01;102768.84;;;7.73;62.20
71559;BME280;59382;43.852;25.952;2022-12-18T10:03:27;102779.59;;;7.73;62.35
71559;BME280;59382;43.852;25.952;2022-12-18T10:06:04;102778.44;;;7.75;62.60
71559;BME280;59382;43.852;25.952;2022-12-18T10:19:51;102761.19;;;7.97;61.77
71559;BME280;59382;43.852;25.952;2022-12-18T10:22:46;102782.34;;;8.09;61.82
71559;BME280;59382;43.852;25.952;2022-12-18T10:25:40;102791.69;;;8.15;61.70
71559;BME280;59382;43.852;25.952;2022-12-18T10:28:16;102767.38;;;7.97;61.47
71559;BME280;59382;43.852;25.952;2022-12-18T10:30:43;102793.69;;;8.13;61.90
71559;BME280;59382;43.852;25.952;2022-12-18T10:33:18;102794.81;;;8.11;61.36
71559;BME280;59382;43.852;25.952;2022-12-18T10:35:44;102802.75;;;8.12;61.67
71559;BME280;59382;43.852;25.952;2022-12-18T10:41:04;102798.91;;;8.05;61.86
71559;BME280;59382;43.852;25.952;2022-12-18T10:43:32;102784.38;;;7.98;62.30
71559;BME280;59382;43.852;25.952;2022-12-18T10:46:19;102797.38;;;8.12;61.75
71559;BME280;59382;43.852;25.952;2022-12-18T10:48:56;102785.47;;;8.05;61.25
71559;BME280;59382;43.852;25.952;2022-12-18T10:51:23;102808.13;;;8.12;61.06
71559;BME280;59382;43.852;25.952;2022-12-18T10:54:16;102769.97;;;7.80;61.52
71559;BME280;59382;43.852;25.952;2022-12-18T10:56:45;102800.22;;;8.01;62.03
71559;BME280;59382;43.852;25.952;2022-12-18T10:59:14;102820.72;;;8.02;61.73
71559;BME280;59382;43.852;25.952;2022-12-18T11:01:57;102817.63;;;7.97;61.82
71559;BME280;59382;43.852;25.952;2022-12-18T11:04:31;102815.47;;;8.10;62.23
71559;BME280;59382;43.852;25.952;2022-12-18T11:07:05;102823.41;;;8.12;61.67
71559;BME280;59382;43.852;25.952;2022-12-18T11:09:34;102821.44;;;8.14;62.18
71559;BME280;59382;43.852;25.952;2022-12-18T11:12:05;102805.44;;;8.12;61.75
71559;BME280;59382;43.852;25.952;2022-12-18T11:14:49;102823.38;;;8.31;61.52
71559;BME280;59382;43.852;25.952;2022-12-18T11:17:21;102828.19;;;8.37;61.37
71559;BME280;59382;43.852;25.952;2022-12-18T11:23:04;102821.34;;;8.42;60.87
71559;BME280;59382;43.852;25.952;2022-12-18T11:25:32;102820.25;;;8.35;61.25
71559;BME280;59382;43.852;25.952;2022-12-18T11:28:04;102816.03;;;8.23;61.19
71559;BME280;59382;43.852;25.952;2022-12-18T11:30:33;102836.97;;;8.29;61.52
71559;BME280;59382;43.852;25.952;2022-12-18T11:35:53;102835.00;;;8.31;61.28
71559;BME280;59382;43.852;25.952;2022-12-18T11:38:26;102841.19;;;8.41;61.23
71559;BME280;59382;43.852;25.952;2022-12-18T11:40:58;102824.81;;;8.35;60.98
71559;BME280;59382;43.852;25.952;2022-12-18T11:43:45;102818.84;;;8.31;61.16
71559;BME280;59382;43.852;25.952;2022-12-18T11:46:39;102833.13;;;8.41;61.02
71559;BME280;59382;43.852;25.952;2022-12-18T11:49:19;102822.25;;;8.33;60.83
71559;BME280;59382;43.852;25.952;2022-12-18T11:52:04;102835.13;;;8.39;60.61
71559;BME280;59382;43.852;25.952;2022-12-18T11:54:33;102840.91;;;8.44;60.68
71559;BME280;59382;43.852;25.952;2022-12-18T11:57:07;102840.31;;;8.50;60.92
71559;BME280;59382;43.852;25.952;2022-12-18T12:08:10;102845.53;;;8.61;60.65
71559;BME280;59382;43.852;25.952;2022-12-18T12:10:48;102843.94;;;8.68;60.53
71559;BME280;59382;43.852;25.952;2022-12-18T12:16:22;102847.03;;;8.73;60.22
71559;BME280;59382;43.852;25.952;2022-12-18T12:22:40;102846.91;;;8.75;59.95
71559;BME280;59382;43.852;25.952;2022-12-18T12:40:03;102849.63;;;8.56;60.42
71559;BME280;59382;43.852;25.952;2022-12-18T12:42:38;102852.47;;;8.54;60.38
71559;BME280;59382;43.852;25.952;2022-12-18T12:45:34;102850.78;;;8.53;60.35
71559;BME280;59382;43.852;25.952;2022-12-18T12:48:02;102828.75;;;8.40;60.23
71559;BME280;59382;43.852;25.952;2022-12-18T12:50:33;102834.78;;;8.52;60.08
71559;BME280;59382;43.852;25.952;2022-12-18T12:53:13;102851.59;;;8.63;60.31
71559;BME280;59382;43.852;25.952;2022-12-18T12:55:46;102867.88;;;8.71;60.19
71559;BME280;59382;43.852;25.952;2022-12-18T13:04:26;102868.59;;;8.64;60.11
71559;BME280;59382;43.852;25.952;2022-12-18T13:07:01;102850.25;;;8.40;60.08
71559;BME280;59382;43.852;25.952;2022-12-18T13:12:33;102875.66;;;8.65;60.24
71559;BME280;59382;43.852;25.952;2022-12-18T13:18:21;102896.81;;;8.50;59.46
71559;BME280;59382;43.852;25.952;2022-12-18T13:23:28;102904.06;;;8.40;60.82
71559;BME280;59382;43.852;25.952;2022-12-18T13:34:20;102924.53;;;8.60;60.29
71559;BME280;59382;43.852;25.952;2022-12-18T13:36:47;102915.94;;;8.57;59.52
71559;BME280;59382;43.852;25.952;2022-12-18T13:42:37;102938.28;;;8.57;59.55
71559;BME280;59382;43.852;25.952;2022-12-18T13:45:50;102929.81;;;8.52;59.40
71559;BME280;59382;43.852;25.952;2022-12-18T13:48:27;102933.09;;;8.46;59.65
71559;BME280;59382;43.852;25.952;2022-12-18T13:51:02;102927.16;;;8.33;59.48
71559;BME280;59382;43.852;25.952;2022-12-18T13:53:36;102930.72;;;8.24;59.84
71559;BME280;59382;43.852;25.952;2022-12-18T13:56:05;102943.59;;;8.30;59.83
71559;BME280;59382;43.852;25.952;2022-12-18T13:58:31;102944.03;;;8.26;59.78
71559;BME280;59382;43.852;25.952;2022-12-18T14:00:57;102948.25;;;8.28;59.79
71559;BME280;59382;43.852;25.952;2022-12-18T14:03:26;102958.69;;;8.22;60.03
71559;BME280;59382;43.852;25.952;2022-12-18T14:05:55;102954.75;;;8.16;59.69
71559;BME280;59382;43.852;25.952;2022-12-18T14:08:23;102971.75;;;8.26;60.20
71559;BME280;59382;43.852;25.952;2022-12-18T14:10:52;102966.22;;;8.28;59.95
71559;BME280;59382;43.852;25.952;2022-12-18T14:13:24;102976.84;;;8.39;59.87
71559;BME280;59382;43.852;25.952;2022-12-18T14:15:54;102977.28;;;8.34;59.82
71559;BME280;59382;43.852;25.952;2022-12-18T14:20:46;102982.66;;;8.34;60.09
71559;BME280;59382;43.852;25.952;2022-12-18T14:23:33;102986.63;;;8.40;59.88
71559;BME280;59382;43.852;25.952;2022-12-18T14:26:03;102936.34;;;8.12;59.91
71559;BME280;59382;43.852;25.952;2022-12-18T14:28:32;102964.69;;;8.25;59.97
71559;BME280;59382;43.852;25.952;2022-12-18T14:30:58;102967.81;;;8.30;60.05
71559;BME280;59382;43.852;25.952;2022-12-18T14:33:27;102975.44;;;8.35;59.90
71559;BME280;59382;43.852;25.952;2022-12-18T14:35:56;102982.22;;;8.48;59.84
71559;BME280;59382;43.852;25.952;2022-12-18T14:38:39;103001.19;;;8.47;59.77
71559;BME280;59382;43.852;25.952;2022-12-18T14:43:41;102999.06;;;8.41;59.79
71559;BME280;59382;43.852;25.952;2022-12-18T14:49:32;102991.44;;;8.36;59.76
71559;BME280;59382;43.852;25.952;2022-12-18T14:52:03;103013.66;;;8.48;59.31
71559;BME280;59382;43.852;25.952;2022-12-18T14:54:30;102992.28;;;8.37;59.65
71559;BME280;59382;43.852;25.952;2022-12-18T14:57:05;103011.94;;;8.47;59.64
71559;BME280;59382;43.852;25.952;2022-12-18T15:00:01;103012.38;;;8.42;59.88
71559;BME280;59382;43.852;25.952;2022-12-18T15:02:28;103011.41;;;8.43;59.81
71559;BME280;59382;43.852;25.952;2022-12-18T15:05:16;103013.66;;;8.38;59.77